sensor_id;sensor_type;location;lat;lon;timestamp;pressure;altitude;pressure_sealevel;temperature;humidity
49583;BME280;36329;48.816;44.624;2023-07-31T00:00:07;100472;;;24.3;55.2
49583;BME280;36329;48.816;44.624;2023-07-31T00:03:09;100471;;;24.3;56.5
49583;BME280;36329;48.816;44.624;2023-07-31T00:06:11;100470;;;24.3;55.8
49583;BME280;36329;48.816;44.624;2023-07-31T00:09:13;100475;;;24.3;56.6
49583;BME280;36329;48.816;44.624;2023-07-31T00:12:15;100476;;;24.4;56.5
49583;BME280;36329;48.816;44.624;2023-07-31T00:15:18;100483;;;24.4;56.1
49583;BME280;36329;48.816;44.624;2023-07-31T00:18:20;100481;;;24.4;55.8
49583;BME280;36329;48.816;44.624;2023-07-31T00:21:22;100476;;;24.4;55.8
49583;BME280;36329;48.816;44.624;2023-07-31T00:24:24;100480;;;24.5;55.7
49583;BME280;36329;48.816;44.624;2023-07-31T00:27:26;100483;;;24.5;56.4
49583;BME280;36329;48.816;44.624;2023-07-31T00:30:28;100486;;;24.4;56.2
49583;BME280;36329;48.816;44.624;2023-07-31T00:33:31;100489;;;24;57.4
49583;BME280;36329;48.816;44.624;2023-07-31T00:36:33;100478;;;23.9;57.5
49583;BME280;36329;48.816;44.624;2023-07-31T00:39:35;100483;;;24;58
49583;BME280;36329;48.816;44.624;2023-07-31T00:42:37;100489;;;23.9;58.1
49583;BME280;36329;48.816;44.624;2023-07-31T00:45:40;100484;;;23.7;59.1
49583;BME280;36329;48.816;44.624;2023-07-31T00:48:42;100482;;;23.5;59.6
49583;BME280;36329;48.816;44.624;2023-07-31T00:51:44;100477;;;23.6;59.6
49583;BME280;36329;48.816;44.624;2023-07-31T00:54:47;100480;;;23.5;59.9
49583;BME280;36329;48.816;44.624;2023-07-31T00:57:50;100477;;;23.5;60.4
49583;BME280;36329;48.816;44.624;2023-07-31T01:00:52;100488;;;23.7;59.3
49583;BME280;36329;48.816;44.624;2023-07-31T01:03:55;100483;;;23.8;58.9
49583;BME280;36329;48.816;44.624;2023-07-31T01:07:02;100480;;;23.6;59.2
49583;BME280;36329;48.816;44.624;2023-07-31T01:10:13;100483;;;23.8;59
49583;BME280;36329;48.816;44.624;2023-07-31T01:13:19;100482;;;24;58.2
49583;BME280;36329;48.816;44.624;2023-07-31T01:16:21;100486;;;24.1;57.7
49583;BME280;36329;48.816;44.624;2023-07-31T01:19:25;100481;;;24.3;56.8
49583;BME280;36329;48.816;44.624;2023-07-31T01:22:36;100489;;;24.3;56.5
49583;BME280;36329;48.816;44.624;2023-07-31T01:25:46;100495;;;24.3;56.7
49583;BME280;36329;48.816;44.624;2023-07-31T01:29:04;100493;;;24.4;56.5
49583;BME280;36329;48.816;44.624;2023-07-31T01:32:10;100490;;;24.4;56.6
49583;BME280;36329;48.816;44.624;2023-07-31T01:35:13;100496;;;24.4;56.5
49583;BME280;36329;48.816;44.624;2023-07-31T01:38:15;100494;;;24.4;56.6
49583;BME280;36329;48.816;44.624;2023-07-31T01:41:17;100510;;;24.4;56.9
49583;BME280;36329;48.816;44.624;2023-07-31T01:44:19;100508;;;24.5;56.4
49583;BME280;36329;48.816;44.624;2023-07-31T01:47:21;100522;;;24.4;57.3
49583;BME280;36329;48.816;44.624;2023-07-31T01:50:23;100515;;;24.2;57.8
49583;BME280;36329;48.816;44.624;2023-07-31T01:53:25;100522;;;24.3;57.3
49583;BME280;36329;48.816;44.624;2023-07-31T01:56:27;100519;;;24.3;56.9
49583;BME280;36329;48.816;44.624;2023-07-31T01:59:29;100526;;;24.3;57.8
49583;BME280;36329;48.816;44.624;2023-07-31T02:02:31;100526;;;24.1;58.9
49583;BME280;36329;48.816;44.624;2023-07-31T02:05:33;100520;;;24.3;57.4
49583;BME280;36329;48.816;44.624;2023-07-31T02:08:35;100522;;;24.4;57.6
49583;BME280;36329;48.816;44.624;2023-07-31T02:11:37;100518;;;24.5;56.9
49583;BME280;36329;48.816;44.624;2023-07-31T02:14:40;100521;;;24.5;57.6
49583;BME280;36329;48.816;44.624;2023-07-31T02:17:42;100524;;;24.3;57.8
49583;BME280;36329;48.816;44.624;2023-07-31T02:20:48;100523;;;24.1;58.4
49583;BME280;36329;48.816;44.624;2023-07-31T02:23:51;100522;;;24.3;57.5
49583;BME280;36329;48.816;44.624;2023-07-31T02:26:53;100518;;;24.2;57.6
49583;BME280;36329;48.816;44.624;2023-07-31T02:29:55;100519;;;24.1;57.9
49583;BME280;36329;48.816;44.624;2023-07-31T02:32:57;100517;;;24;58.3
49583;BME280;36329;48.816;44.624;2023-07-31T02:35:59;100524;;;24.2;58.5
49583;BME280;36329;48.816;44.624;2023-07-31T02:39:02;100523;;;24.2;58.6
49583;BME280;36329;48.816;44.624;2023-07-31T02:42:04;100522;;;24.3;57.8
49583;BME280;36329;48.816;44.624;2023-07-31T02:45:06;100519;;;24.3;57.7
49583;BME280;36329;48.816;44.624;2023-07-31T02:48:09;100523;;;24;58.6
49583;BME280;36329;48.816;44.624;2023-07-31T02:51:11;100518;;;23.9;58.9
49583;BME280;36329;48.816;44.624;2023-07-31T02:54:13;100520;;;23.9;59.8
49583;BME280;36329;48.816;44.624;2023-07-31T02:57:15;100514;;;23.8;60.3
49583;BME280;36329;48.816;44.624;2023-07-31T03:00:17;100519;;;23.9;59.1
49583;BME280;36329;48.816;44.624;2023-07-31T03:03:19;100521;;;24.2;58.6
49583;BME280;36329;48.816;44.624;2023-07-31T03:06:21;100521;;;24.3;58.1
49583;BME280;36329;48.816;44.624;2023-07-31T03:09:23;100525;;;24.5;57.5
49583;BME280;36329;48.816;44.624;2023-07-31T03:12:25;100518;;;24.6;57.3
49583;BME280;36329;48.816;44.624;2023-07-31T03:15:27;100519;;;24.7;56.6
49583;BME280;36329;48.816;44.624;2023-07-31T03:18:29;100514;;;24.6;56.4
49583;BME280;36329;48.816;44.624;2023-07-31T03:21:31;100514;;;24.6;57.2
49583;BME280;36329;48.816;44.624;2023-07-31T03:24:34;100518;;;24.7;56.5
49583;BME280;36329;48.816;44.624;2023-07-31T03:27:36;100513;;;24.8;57.7
49583;BME280;36329;48.816;44.624;2023-07-31T03:30:38;100518;;;24.7;57.3
49583;BME280;36329;48.816;44.624;2023-07-31T03:33:40;100522;;;24.5;58.4
49583;BME280;36329;48.816;44.624;2023-07-31T03:36:42;100517;;;24.4;58.5
49583;BME280;36329;48.816;44.624;2023-07-31T03:39:44;100521;;;24.5;61.2
49583;BME280;36329;48.816;44.624;2023-07-31T03:42:46;100525;;;24.5;60.9
49583;BME280;36329;48.816;44.624;2023-07-31T03:45:48;100532;;;24.3;63
49583;BME280;36329;48.816;44.624;2023-07-31T03:48:50;100530;;;24.3;61.2
49583;BME280;36329;48.816;44.624;2023-07-31T03:51:54;100534;;;24.4;61.8
49583;BME280;36329;48.816;44.624;2023-07-31T03:54:55;100532;;;24.4;62
49583;BME280;36329;48.816;44.624;2023-07-31T03:57:59;100528;;;24.5;61.9
49583;BME280;36329;48.816;44.624;2023-07-31T04:01:01;100530;;;24.5;61.3
49583;BME280;36329;48.816;44.624;2023-07-31T04:04:03;100533;;;24.6;60.7
49583;BME280;36329;48.816;44.624;2023-07-31T04:07:05;100534;;;24.5;60.6
49583;BME280;36329;48.816;44.624;2023-07-31T04:10:08;100541;;;24.7;61.3
49583;BME280;36329;48.816;44.624;2023-07-31T04:13:10;100539;;;24.6;65.1
49583;BME280;36329;48.816;44.624;2023-07-31T04:16:12;100548;;;24.5;67.2
49583;BME280;36329;48.816;44.624;2023-07-31T04:19:14;100547;;;24.6;67
49583;BME280;36329;48.816;44.624;2023-07-31T04:22:17;100545;;;24.6;69.2
49583;BME280;36329;48.816;44.624;2023-07-31T04:25:20;100547;;;24.6;70.5
49583;BME280;36329;48.816;44.624;2023-07-31T04:28:23;100547;;;24.7;69.2
49583;BME280;36329;48.816;44.624;2023-07-31T04:31:25;100546;;;24.8;69.3
49583;BME280;36329;48.816;44.624;2023-07-31T04:34:28;100544;;;24.9;67.9
49583;BME280;36329;48.816;44.624;2023-07-31T04:37:30;100547;;;25.6;65.7
49583;BME280;36329;48.816;44.624;2023-07-31T04:40:32;100546;;;25.8;64.9
49583;BME280;36329;48.816;44.624;2023-07-31T04:43:34;100543;;;25.7;63.6
49583;BME280;36329;48.816;44.624;2023-07-31T04:46:36;100542;;;25.8;60.9
49583;BME280;36329;48.816;44.624;2023-07-31T04:49:39;100541;;;25.8;61.6
49583;BME280;36329;48.816;44.624;2023-07-31T04:52:40;100547;;;25.9;59.5
49583;BME280;36329;48.816;44.624;2023-07-31T04:55:42;100546;;;26.3;57.2
49583;BME280;36329;48.816;44.624;2023-07-31T04:58:45;100545;;;26.2;57
49583;BME280;36329;48.816;44.624;2023-07-31T05:01:47;100544;;;26.1;56.3
49583;BME280;36329;48.816;44.624;2023-07-31T05:04:49;100547;;;26.2;55.9
49583;BME280;36329;48.816;44.624;2023-07-31T05:07:51;100551;;;26.4;55.9
49583;BME280;36329;48.816;44.624;2023-07-31T05:10:53;100550;;;26.2;55.9
49583;BME280;36329;48.816;44.624;2023-07-31T05:13:55;100547;;;26.4;55
49583;BME280;36329;48.816;44.624;2023-07-31T05:16:57;100549;;;26.7;54.4
49583;BME280;36329;48.816;44.624;2023-07-31T05:19:59;100546;;;26.8;54.7
49583;BME280;36329;48.816;44.624;2023-07-31T05:23:01;100550;;;26.6;56.2
49583;BME280;36329;48.816;44.624;2023-07-31T05:26:04;100558;;;26.7;56.5
49583;BME280;36329;48.816;44.624;2023-07-31T05:29:06;100563;;;26.8;56
49583;BME280;36329;48.816;44.624;2023-07-31T05:32:09;100563;;;26.8;57
49583;BME280;36329;48.816;44.624;2023-07-31T05:35:11;100557;;;26.7;58.9
49583;BME280;36329;48.816;44.624;2023-07-31T05:38:13;100559;;;26.9;59
49583;BME280;36329;48.816;44.624;2023-07-31T05:41:15;100559;;;26.8;58.1
49583;BME280;36329;48.816;44.624;2023-07-31T05:44:17;100557;;;27.1;58.4
49583;BME280;36329;48.816;44.624;2023-07-31T05:47:19;100562;;;27.2;57.4
49583;BME280;36329;48.816;44.624;2023-07-31T05:50:21;100561;;;27.3;57.1
49583;BME280;36329;48.816;44.624;2023-07-31T05:53:23;100559;;;27.1;58.3
49583;BME280;36329;48.816;44.624;2023-07-31T05:56:26;100559;;;27.2;57.7
49583;BME280;36329;48.816;44.624;2023-07-31T05:59:27;100561;;;27.2;59.3
49583;BME280;36329;48.816;44.624;2023-07-31T06:02:29;100563;;;27.7;56.4
49583;BME280;36329;48.816;44.624;2023-07-31T06:05:32;100563;;;28;54.6
49583;BME280;36329;48.816;44.624;2023-07-31T06:08:34;100563;;;27.7;55.1
49583;BME280;36329;48.816;44.624;2023-07-31T06:11:36;100558;;;28;53.3
49583;BME280;36329;48.816;44.624;2023-07-31T06:14:38;100559;;;28.2;53.9
49583;BME280;36329;48.816;44.624;2023-07-31T06:17:40;100555;;;28.5;52.6
49583;BME280;36329;48.816;44.624;2023-07-31T06:20:42;100556;;;28.6;51.8
49583;BME280;36329;48.816;44.624;2023-07-31T06:23:44;100553;;;28.8;49.9
49583;BME280;36329;48.816;44.624;2023-07-31T06:26:47;100554;;;28.9;49.6
49583;BME280;36329;48.816;44.624;2023-07-31T06:29:50;100555;;;28.8;49.9
49583;BME280;36329;48.816;44.624;2023-07-31T06:32:52;100562;;;29;48.9
49583;BME280;36329;48.816;44.624;2023-07-31T06:35:54;100553;;;29.2;48
49583;BME280;36329;48.816;44.624;2023-07-31T06:38:56;100561;;;29.5;46.6
49583;BME280;36329;48.816;44.624;2023-07-31T06:41:58;100556;;;29.6;46.2
49583;BME280;36329;48.816;44.624;2023-07-31T06:45:00;100548;;;29.7;46.1
49583;BME280;36329;48.816;44.624;2023-07-31T06:48:03;100548;;;29.7;44.9
49583;BME280;36329;48.816;44.624;2023-07-31T06:51:06;100550;;;30;45.2
49583;BME280;36329;48.816;44.624;2023-07-31T06:54:08;100553;;;29.8;44.4
49583;BME280;36329;48.816;44.624;2023-07-31T06:57:10;100560;;;29.9;44.2
49583;BME280;36329;48.816;44.624;2023-07-31T07:00:13;100557;;;29.8;42.4
49583;BME280;36329;48.816;44.624;2023-07-31T07:03:18;100561;;;30.4;42.8
49583;BME280;36329;48.816;44.624;2023-07-31T07:06:22;100559;;;30.3;41.9
49583;BME280;36329;48.816;44.624;2023-07-31T07:09:24;100559;;;30.6;40.8
49583;BME280;36329;48.816;44.624;2023-07-31T07:12:27;100561;;;31.1;39
49583;BME280;36329;48.816;44.624;2023-07-31T07:15:29;100555;;;31.2;38.3
49583;BME280;36329;48.816;44.624;2023-07-31T07:18:31;100558;;;31.2;38.1
49583;BME280;36329;48.816;44.624;2023-07-31T07:21:33;100558;;;31.6;37.6
49583;BME280;36329;48.816;44.624;2023-07-31T07:24:35;100558;;;31.7;37
49583;BME280;36329;48.816;44.624;2023-07-31T07:27:37;100548;;;32;37
49583;BME280;36329;48.816;44.624;2023-07-31T07:30:40;100547;;;32.2;37.1
49583;BME280;36329;48.816;44.624;2023-07-31T07:33:42;100542;;;32.5;36.3
49583;BME280;36329;48.816;44.624;2023-07-31T07:36:44;100539;;;32.5;36.3
49583;BME280;36329;48.816;44.624;2023-07-31T07:39:46;100543;;;32.1;35.4
49583;BME280;36329;48.816;44.624;2023-07-31T07:42:49;100541;;;32.1;36
49583;BME280;36329;48.816;44.624;2023-07-31T07:45:53;100540;;;32.2;35.2
49583;BME280;36329;48.816;44.624;2023-07-31T07:48:55;100533;;;32.3;35.5
49583;BME280;36329;48.816;44.624;2023-07-31T07:51:59;100539;;;32.2;34.8
49583;BME280;36329;48.816;44.624;2023-07-31T07:55:01;100536;;;32.2;34.3
49583;BME280;36329;48.816;44.624;2023-07-31T07:58:03;100535;;;31.9;33.9
49583;BME280;36329;48.816;44.624;2023-07-31T08:01:05;100539;;;31.3;35.3
49583;BME280;36329;48.816;44.624;2023-07-31T08:04:07;100534;;;30.9;36.2
49583;BME280;36329;48.816;44.624;2023-07-31T08:07:10;100533;;;30.8;37
49583;BME280;36329;48.816;44.624;2023-07-31T08:10:12;100534;;;31.2;35.5
49583;BME280;36329;48.816;44.624;2023-07-31T08:13:14;100528;;;31.3;35.6
49583;BME280;36329;48.816;44.624;2023-07-31T08:16:16;100533;;;31.8;34.1
49583;BME280;36329;48.816;44.624;2023-07-31T08:19:18;100530;;;31;35
49583;BME280;36329;48.816;44.624;2023-07-31T08:22:21;100527;;;30.5;35.6
49583;BME280;36329;48.816;44.624;2023-07-31T08:25:24;100519;;;30.2;35.9
49583;BME280;36329;48.816;44.624;2023-07-31T08:28:26;100525;;;30;36.3
49583;BME280;36329;48.816;44.624;2023-07-31T08:31:28;100529;;;30.1;37.2
49583;BME280;36329;48.816;44.624;2023-07-31T08:34:30;100529;;;30.4;36.7
49583;BME280;36329;48.816;44.624;2023-07-31T08:37:32;100523;;;30.5;37.1
49583;BME280;36329;48.816;44.624;2023-07-31T08:40:36;100524;;;31;36.7
49583;BME280;36329;48.816;44.624;2023-07-31T08:43:38;100518;;;30.9;36.4
49583;BME280;36329;48.816;44.624;2023-07-31T08:46:41;100519;;;30.7;36.4
49583;BME280;36329;48.816;44.624;2023-07-31T08:49:46;100522;;;30.5;36.9
49583;BME280;36329;48.816;44.624;2023-07-31T08:52:51;100521;;;30.6;36.9
49583;BME280;36329;48.816;44.624;2023-07-31T08:55:54;100522;;;30.9;39.1
49583;BME280;36329;48.816;44.624;2023-07-31T08:58:57;100517;;;30.6;35.9
49583;BME280;36329;48.816;44.624;2023-07-31T09:02:05;100511;;;30.5;37
49583;BME280;36329;48.816;44.624;2023-07-31T09:05:09;100507;;;30.4;36.1
49583;BME280;36329;48.816;44.624;2023-07-31T09:08:14;100504;;;30.3;36.1
49583;BME280;36329;48.816;44.624;2023-07-31T09:11:17;100507;;;30.3;36.3
49583;BME280;36329;48.816;44.624;2023-07-31T09:14:21;100511;;;30.7;36.3
49583;BME280;36329;48.816;44.624;2023-07-31T09:17:31;100510;;;32;36.6
49583;BME280;36329;48.816;44.624;2023-07-31T09:20:34;100508;;;32.8;32.5
49583;BME280;36329;48.816;44.624;2023-07-31T09:23:41;100514;;;33.5;31.3
49583;BME280;36329;48.816;44.624;2023-07-31T09:26:43;100507;;;33.9;31.1
49583;BME280;36329;48.816;44.624;2023-07-31T09:29:59;100509;;;34;30.3
49583;BME280;36329;48.816;44.624;2023-07-31T09:33:03;100511;;;33.1;30.3
49583;BME280;36329;48.816;44.624;2023-07-31T09:36:06;100509;;;32.9;31.9
49583;BME280;36329;48.816;44.624;2023-07-31T09:39:09;100512;;;33.2;32
49583;BME280;36329;48.816;44.624;2023-07-31T09:42:12;100511;;;33.7;30.1
49583;BME280;36329;48.816;44.624;2023-07-31T09:45:14;100508;;;33.8;29.7
49583;BME280;36329;48.816;44.624;2023-07-31T09:48:18;100510;;;33.8;30.2
49583;BME280;36329;48.816;44.624;2023-07-31T09:51:26;100504;;;34;29.5
49583;BME280;36329;48.816;44.624;2023-07-31T09:54:29;100502;;;33.9;29
49583;BME280;36329;48.816;44.624;2023-07-31T09:57:32;100491;;;33.9;28.4
49583;BME280;36329;48.816;44.624;2023-07-31T10:00:38;100495;;;33.5;28.7
49583;BME280;36329;48.816;44.624;2023-07-31T10:03:40;100486;;;34.1;28.7
49583;BME280;36329;48.816;44.624;2023-07-31T10:06:45;100492;;;33.3;29
49583;BME280;36329;48.816;44.624;2023-07-31T10:09:48;100491;;;32.4;29.6
49583;BME280;36329;48.816;44.624;2023-07-31T10:12:52;100493;;;32.4;30.8
49583;BME280;36329;48.816;44.624;2023-07-31T10:15:58;100490;;;32.8;30.4
49583;BME280;36329;48.816;44.624;2023-07-31T10:19:01;100478;;;33.4;30.8
49583;BME280;36329;48.816;44.624;2023-07-31T10:22:04;100476;;;33.7;29.3
49583;BME280;36329;48.816;44.624;2023-07-31T10:25:08;100483;;;33.3;29.8
49583;BME280;36329;48.816;44.624;2023-07-31T10:28:11;100469;;;32.8;29.9
49583;BME280;36329;48.816;44.624;2023-07-31T10:31:14;100476;;;32.5;29.8
49583;BME280;36329;48.816;44.624;2023-07-31T10:34:16;100476;;;32.1;30.9
49583;BME280;36329;48.816;44.624;2023-07-31T10:37:20;100473;;;31.9;31.5
49583;BME280;36329;48.816;44.624;2023-07-31T10:40:26;100480;;;31.7;31.2
49583;BME280;36329;48.816;44.624;2023-07-31T10:43:33;100480;;;31.4;32.2
49583;BME280;36329;48.816;44.624;2023-07-31T10:46:36;100477;;;31.5;32.7
49583;BME280;36329;48.816;44.624;2023-07-31T10:49:38;100472;;;31.3;32.5
49583;BME280;36329;48.816;44.624;2023-07-31T10:52:43;100472;;;31.4;32.4
49583;BME280;36329;48.816;44.624;2023-07-31T10:55:45;100475;;;31.1;32.2
49583;BME280;36329;48.816;44.624;2023-07-31T10:59:00;100478;;;31.1;32.4
49583;BME280;36329;48.816;44.624;2023-07-31T11:02:03;100477;;;31.1;32.6
49583;BME280;36329;48.816;44.624;2023-07-31T11:05:06;100475;;;31.4;32.7
49583;BME280;36329;48.816;44.624;2023-07-31T11:08:17;100473;;;31.9;31.8
49583;BME280;36329;48.816;44.624;2023-07-31T11:11:20;100470;;;32.2;30.5
49583;BME280;36329;48.816;44.624;2023-07-31T11:14:23;100455;;;31.8;31.2
49583;BME280;36329;48.816;44.624;2023-07-31T11:17:25;100461;;;31.6;31.6
49583;BME280;36329;48.816;44.624;2023-07-31T11:20:29;100458;;;31.2;32.5
49583;BME280;36329;48.816;44.624;2023-07-31T11:23:31;100457;;;31.3;32.8
49583;BME280;36329;48.816;44.624;2023-07-31T11:26:33;100455;;;31.5;32.5
49583;BME280;36329;48.816;44.624;2023-07-31T11:29:35;100458;;;31.3;32
49583;BME280;36329;48.816;44.624;2023-07-31T11:32:37;100452;;;31.3;32.7
49583;BME280;36329;48.816;44.624;2023-07-31T11:35:43;100446;;;31.5;32.3
49583;BME280;36329;48.816;44.624;2023-07-31T11:38:45;100447;;;31.5;32.1
49583;BME280;36329;48.816;44.624;2023-07-31T11:41:47;100446;;;31.3;32.6
49583;BME280;36329;48.816;44.624;2023-07-31T11:44:51;100444;;;31.4;32
49583;BME280;36329;48.816;44.624;2023-07-31T11:47:54;100446;;;31.3;31.2
49583;BME280;36329;48.816;44.624;2023-07-31T11:50:58;100442;;;31.1;31.8
49583;BME280;36329;48.816;44.624;2023-07-31T11:54:02;100441;;;31.1;31.6
49583;BME280;36329;48.816;44.624;2023-07-31T11:57:05;100432;;;31.2;31.9
49583;BME280;36329;48.816;44.624;2023-07-31T12:00:09;100430;;;31.3;32.5
49583;BME280;36329;48.816;44.624;2023-07-31T12:03:11;100433;;;31.4;32.2
49583;BME280;36329;48.816;44.624;2023-07-31T12:06:14;100426;;;31.6;31.7
49583;BME280;36329;48.816;44.624;2023-07-31T12:09:16;100421;;;31.5;31.9
49583;BME280;36329;48.816;44.624;2023-07-31T12:12:20;100428;;;31.6;30
49583;BME280;36329;48.816;44.624;2023-07-31T12:15:28;100424;;;31.7;29.7
49583;BME280;36329;48.816;44.624;2023-07-31T12:18:33;100422;;;31.7;30.8
49583;BME280;36329;48.816;44.624;2023-07-31T12:21:37;100419;;;31.9;30.8
49583;BME280;36329;48.816;44.624;2023-07-31T12:24:39;100423;;;31.7;30.6
49583;BME280;36329;48.816;44.624;2023-07-31T12:27:44;100409;;;31.5;30
49583;BME280;36329;48.816;44.624;2023-07-31T12:30:46;100411;;;31.4;30.5
49583;BME280;36329;48.816;44.624;2023-07-31T12:33:50;100417;;;31.3;31.1
49583;BME280;36329;48.816;44.624;2023-07-31T12:36:53;100411;;;31.2;31.2
49583;BME280;36329;48.816;44.624;2023-07-31T12:39:55;100415;;;31.2;31.1
49583;BME280;36329;48.816;44.624;2023-07-31T12:42:58;100412;;;31;31.1
49583;BME280;36329;48.816;44.624;2023-07-31T12:46:03;100412;;;31.1;30.3
49583;BME280;36329;48.816;44.624;2023-07-31T12:49:06;100419;;;31.1;30.7
49583;BME280;36329;48.816;44.624;2023-07-31T12:52:08;100412;;;31;32.1
49583;BME280;36329;48.816;44.624;2023-07-31T12:55:10;100411;;;31;31.5
49583;BME280;36329;48.816;44.624;2023-07-31T12:58:13;100402;;;31.1;30.2
49583;BME280;36329;48.816;44.624;2023-07-31T13:01:15;100413;;;31;31.3
49583;BME280;36329;48.816;44.624;2023-07-31T13:04:17;100401;;;30.8;31.7
49583;BME280;36329;48.816;44.624;2023-07-31T13:07:19;100399;;;30.9;31.8
49583;BME280;36329;48.816;44.624;2023-07-31T13:10:22;100398;;;30.9;31.4
49583;BME280;36329;48.816;44.624;2023-07-31T13:13:25;100397;;;30.9;31.5
49583;BME280;36329;48.816;44.624;2023-07-31T13:16:27;100388;;;30.8;31.4
49583;BME280;36329;48.816;44.624;2023-07-31T13:19:29;100393;;;31;29.6
49583;BME280;36329;48.816;44.624;2023-07-31T13:22:32;100404;;;31.3;28.4
49583;BME280;36329;48.816;44.624;2023-07-31T13:25:35;100391;;;31.4;28.4
49583;BME280;36329;48.816;44.624;2023-07-31T13:28:37;100394;;;31.5;28.6
49583;BME280;36329;48.816;44.624;2023-07-31T13:31:39;100389;;;31.4;28.3
49583;BME280;36329;48.816;44.624;2023-07-31T13:34:41;100394;;;31.5;28.3
49583;BME280;36329;48.816;44.624;2023-07-31T13:37:43;100392;;;31.6;28.4
49583;BME280;36329;48.816;44.624;2023-07-31T13:40:45;100391;;;31.6;28.2
49583;BME280;36329;48.816;44.624;2023-07-31T13:43:48;100396;;;31.8;28.8
49583;BME280;36329;48.816;44.624;2023-07-31T13:46:51;100390;;;31.8;28.1
49583;BME280;36329;48.816;44.624;2023-07-31T13:49:53;100384;;;31.8;27.2
49583;BME280;36329;48.816;44.624;2023-07-31T13:53:03;100389;;;31.6;28.1
49583;BME280;36329;48.816;44.624;2023-07-31T13:56:07;100388;;;31.3;28.7
49583;BME280;36329;48.816;44.624;2023-07-31T13:59:13;100393;;;31.2;28.9
49583;BME280;36329;48.816;44.624;2023-07-31T14:02:15;100381;;;31.1;29.2
49583;BME280;36329;48.816;44.624;2023-07-31T14:05:18;100378;;;31.2;29.5
49583;BME280;36329;48.816;44.624;2023-07-31T14:08:20;100376;;;31.2;30.1
49583;BME280;36329;48.816;44.624;2023-07-31T14:11:22;100384;;;31.3;30
49583;BME280;36329;48.816;44.624;2023-07-31T14:14:24;100380;;;31.4;27.9
49583;BME280;36329;48.816;44.624;2023-07-31T14:17:26;100380;;;31.4;27.6
49583;BME280;36329;48.816;44.624;2023-07-31T14:20:29;100380;;;31.4;28.2
49583;BME280;36329;48.816;44.624;2023-07-31T14:23:31;100383;;;31.4;28.9
49583;BME280;36329;48.816;44.624;2023-07-31T14:26:34;100380;;;31.3;28.8
49583;BME280;36329;48.816;44.624;2023-07-31T14:29:36;100386;;;31.1;29.6
49583;BME280;36329;48.816;44.624;2023-07-31T14:32:38;100380;;;31.2;29
49583;BME280;36329;48.816;44.624;2023-07-31T14:35:40;100384;;;31.1;29.1
49583;BME280;36329;48.816;44.624;2023-07-31T14:38:42;100384;;;31.1;28.4
49583;BME280;36329;48.816;44.624;2023-07-31T14:41:44;100384;;;31.2;28.3
49583;BME280;36329;48.816;44.624;2023-07-31T14:44:47;100379;;;31.3;27.5
49583;BME280;36329;48.816;44.624;2023-07-31T14:47:49;100385;;;31.3;27.5
49583;BME280;36329;48.816;44.624;2023-07-31T14:50:54;100380;;;31.4;28.1
49583;BME280;36329;48.816;44.624;2023-07-31T14:53:57;100384;;;31.3;28.7
49583;BME280;36329;48.816;44.624;2023-07-31T14:57:00;100383;;;31.3;28.4
49583;BME280;36329;48.816;44.624;2023-07-31T15:00:03;100380;;;31.2;28.6
49583;BME280;36329;48.816;44.624;2023-07-31T15:03:08;100385;;;31.1;28.8
49583;BME280;36329;48.816;44.624;2023-07-31T15:06:10;100385;;;31.1;29.2
49583;BME280;36329;48.816;44.624;2023-07-31T15:09:12;100390;;;31;29.8
49583;BME280;36329;48.816;44.624;2023-07-31T15:12:14;100390;;;31;29.5
49583;BME280;36329;48.816;44.624;2023-07-31T15:15:16;100382;;;30.9;29.4
49583;BME280;36329;48.816;44.624;2023-07-31T15:18:18;100386;;;30.8;29.6
49583;BME280;36329;48.816;44.624;2023-07-31T15:21:20;100386;;;30.8;29.8
49583;BME280;36329;48.816;44.624;2023-07-31T15:24:22;100386;;;30.7;29.8
49583;BME280;36329;48.816;44.624;2023-07-31T15:27:24;100385;;;30.6;30.1
49583;BME280;36329;48.816;44.624;2023-07-31T15:30:26;100389;;;30.6;29.7
49583;BME280;36329;48.816;44.624;2023-07-31T15:33:28;100389;;;30.6;30.5
49583;BME280;36329;48.816;44.624;2023-07-31T15:36:31;100393;;;30.5;30.9
49583;BME280;36329;48.816;44.624;2023-07-31T15:39:33;100395;;;30.5;31.5
49583;BME280;36329;48.816;44.624;2023-07-31T15:42:35;100395;;;30.4;31.7
49583;BME280;36329;48.816;44.624;2023-07-31T15:45:37;100397;;;30.3;31.9
49583;BME280;36329;48.816;44.624;2023-07-31T15:48:39;100393;;;30.3;31.9
49583;BME280;36329;48.816;44.624;2023-07-31T15:51:41;100397;;;30.3;31.9
49583;BME280;36329;48.816;44.624;2023-07-31T15:54:43;100392;;;30.2;32.3
49583;BME280;36329;48.816;44.624;2023-07-31T15:57:46;100397;;;30.1;32.5
49583;BME280;36329;48.816;44.624;2023-07-31T16:00:48;100398;;;30.1;32.7
49583;BME280;36329;48.816;44.624;2023-07-31T16:03:50;100401;;;30;32.6
49583;BME280;36329;48.816;44.624;2023-07-31T16:06:52;100398;;;30;32.7
49583;BME280;36329;48.816;44.624;2023-07-31T16:09:54;100399;;;29.9;33.2
49583;BME280;36329;48.816;44.624;2023-07-31T16:12:56;100401;;;29.8;33
49583;BME280;36329;48.816;44.624;2023-07-31T16:15:58;100402;;;29.8;33.2
49583;BME280;36329;48.816;44.624;2023-07-31T16:19:00;100405;;;29.7;33.6
49583;BME280;36329;48.816;44.624;2023-07-31T16:22:02;100403;;;29.6;33.6
49583;BME280;36329;48.816;44.624;2023-07-31T16:25:05;100404;;;29.6;34
49583;BME280;36329;48.816;44.624;2023-07-31T16:28:07;100407;;;29.6;33.6
49583;BME280;36329;48.816;44.624;2023-07-31T16:31:09;100412;;;29.6;34
49583;BME280;36329;48.816;44.624;2023-07-31T16:34:12;100411;;;29.5;34.7
49583;BME280;36329;48.816;44.624;2023-07-31T16:37:13;100414;;;29.6;35.5
49583;BME280;36329;48.816;44.624;2023-07-31T16:40:16;100417;;;29.5;35
49583;BME280;36329;48.816;44.624;2023-07-31T16:43:18;100419;;;29.5;35
49583;BME280;36329;48.816;44.624;2023-07-31T16:46:20;100421;;;29.4;35.9
49583;BME280;36329;48.816;44.624;2023-07-31T16:49:22;100422;;;29.4;36.4
49583;BME280;36329;48.816;44.624;2023-07-31T16:52:24;100426;;;29.2;37.6